createdAt,value
2022-12-18T00:00:19.479Z,4.88
2022-12-18T00:03:09.694Z,5.16
2022-12-18T00:05:39.005Z,5.36
2022-12-18T00:08:09.405Z,5.07
2022-12-18T00:10:38.586Z,5.61
2022-12-18T00:13:09.966Z,5.27
2022-12-18T00:15:41.680Z,5.49
2022-12-18T00:18:16.025Z,5.09
2022-12-18T00:20:46.691Z,4.19
2022-12-18T00:23:15.319Z,4.08
2022-12-18T00:25:44.336Z,3.89
2022-12-18T00:28:12.905Z,4.02
2022-12-18T00:30:41.942Z,3.75
2022-12-18T00:33:11.985Z,3.73
2022-12-18T00:35:40.898Z,3.64
2022-12-18T00:38:09.547Z,3.70
2022-12-18T00:40:38.452Z,3.61
2022-12-18T00:43:05.907Z,4.01
2022-12-18T00:45:34.764Z,4.13
2022-12-18T00:48:03.478Z,4.77
2022-12-18T00:50:35.408Z,4.73
2022-12-18T00:53:04.186Z,5.28
2022-12-18T00:55:33.246Z,4.83
2022-12-18T00:58:01.726Z,3.92
2022-12-18T01:00:30.710Z,3.94
2022-12-18T01:02:59.477Z,3.75
2022-12-18T01:05:29.394Z,3.79
2022-12-18T01:07:59.530Z,3.86
2022-12-18T01:10:28.390Z,3.68
2022-12-18T01:12:59.646Z,3.71
2022-12-18T01:15:28.976Z,3.63
2022-12-18T01:17:57.479Z,4.05
2022-12-18T01:20:29.438Z,4.10
2022-12-18T01:22:59.438Z,3.74
2022-12-18T01:25:29.692Z,3.81
2022-12-18T01:27:58.461Z,3.43
2022-12-18T01:30:27.474Z,3.65
2022-12-18T01:32:55.986Z,3.44
2022-12-18T01:35:24.806Z,3.62
2022-12-18T01:37:56.561Z,3.34
2022-12-18T01:40:26.910Z,3.28
2022-12-18T01:42:56.079Z,3.88
2022-12-18T01:45:28.559Z,3.90
2022-12-18T01:47:59.929Z,3.83
2022-12-18T01:50:32.919Z,4.03
2022-12-18T01:53:06.097Z,4.12
2022-12-18T01:55:41.042Z,4.09
2022-12-18T01:58:09.988Z,4.22
2022-12-18T02:00:38.966Z,4.29
2022-12-18T02:03:07.469Z,3.88
2022-12-18T02:05:57.121Z,3.80
2022-12-18T02:08:32.408Z,3.76
2022-12-18T02:11:09.476Z,3.78
2022-12-18T02:13:46.028Z,3.56
2022-12-18T02:16:23.781Z,3.74
2022-12-18T02:18:59.247Z,3.91
2022-12-18T02:21:37.101Z,4.07
2022-12-18T02:24:19.886Z,4.43
2022-12-18T02:26:54.055Z,4.69
2022-12-18T02:29:29.557Z,4.35
2022-12-18T02:32:01.053Z,4.37
2022-12-18T02:34:33.847Z,4.68
2022-12-18T02:37:07.984Z,4.04
2022-12-18T02:39:39.771Z,4.21
2022-12-18T02:42:10.379Z,4.04
2022-12-18T02:44:45.582Z,4.01
2022-12-18T02:47:19.077Z,3.76
2022-12-18T02:50:00.388Z,3.92
2022-12-18T02:52:41.672Z,4.14
2022-12-18T02:55:26.969Z,4.42
2022-12-18T02:58:07.921Z,5.01
2022-12-18T03:00:43.690Z,5.26
2022-12-18T03:03:18.729Z,5.47
2022-12-18T03:05:54.859Z,5.79
2022-12-18T03:08:28.177Z,5.19
2022-12-18T03:11:04.154Z,5.42
2022-12-18T03:13:41.790Z,5.21
2022-12-18T03:16:20.157Z,5.35
2022-12-18T03:18:53.894Z,5.56
2022-12-18T03:21:30.871Z,5.74
2022-12-18T03:24:01.184Z,5.97
2022-12-18T03:26:31.931Z,6.30
2022-12-18T03:29:10.195Z,6.33
2022-12-18T03:31:43.160Z,6.32
2022-12-18T03:34:16.527Z,6.30
2022-12-18T03:36:48.465Z,4.86
2022-12-18T03:39:17.957Z,4.51
2022-12-18T03:41:58.921Z,4.10
2022-12-18T03:44:47.387Z,3.88
2022-12-18T03:47:19.536Z,4.26
2022-12-18T03:49:56.506Z,4.89
2022-12-18T03:52:31.114Z,5.06
2022-12-18T03:55:02.361Z,5.26
2022-12-18T03:57:33.848Z,4.73
2022-12-18T04:00:08.628Z,4.81
2022-12-18T04:02:48.171Z,5.18
2022-12-18T04:05:26.867Z,5.57
2022-12-18T04:07:57.312Z,5.32
2022-12-18T04:10:26.143Z,5.35
2022-12-18T04:12:59.098Z,5.76
2022-12-18T04:15:29.938Z,5.68
2022-12-18T04:18:00.728Z,5.73
2022-12-18T04:20:38.719Z,4.71
2022-12-18T04:23:07.339Z,5.16
2022-12-18T04:25:37.829Z,5.36
2022-12-18T04:28:09.512Z,5.11
2022-12-18T04:30:42.254Z,5.44
2022-12-18T04:33:11.928Z,5.41
2022-12-18T04:35:41.784Z,5.45
2022-12-18T04:38:11.983Z,5.65
2022-12-18T04:40:41.426Z,5.67
2022-12-18T04:43:18.768Z,5.77
2022-12-18T04:45:49.027Z,5.59
2022-12-18T04:48:18.287Z,5.49
2022-12-18T04:50:47.174Z,5.68
2022-12-18T04:53:15.668Z,5.43
2022-12-18T04:55:44.513Z,5.40
2022-12-18T04:58:13.064Z,5.55
2022-12-18T05:00:41.884Z,4.93
2022-12-18T05:03:11.828Z,5.09
2022-12-18T05:05:40.650Z,4.64
2022-12-18T05:08:09.077Z,4.82
2022-12-18T05:10:38.556Z,5.10
2022-12-18T05:13:07.093Z,4.64
2022-12-18T05:15:36.521Z,4.06
2022-12-18T05:18:06.387Z,4.62
2022-12-18T05:20:36.615Z,4.68
2022-12-18T05:23:05.068Z,4.78
2022-12-18T05:25:33.776Z,4.96
2022-12-18T05:28:02.290Z,4.61
2022-12-18T05:30:30.990Z,4.09
2022-12-18T05:32:59.582Z,3.79
2022-12-18T05:35:28.430Z,4.30
2022-12-18T05:37:58.708Z,4.00
2022-12-18T05:40:27.646Z,4.41
2022-12-18T05:42:56.852Z,4.74
2022-12-18T05:45:25.586Z,4.80
2022-12-18T05:47:54.002Z,4.91
2022-12-18T05:50:22.757Z,4.80
2022-12-18T05:52:51.151Z,4.17
2022-12-18T05:55:21.727Z,3.99
2022-12-18T05:57:50.253Z,3.16
2022-12-18T06:00:19.498Z,3.17
2022-12-18T06:02:49.567Z,3.24
2022-12-18T06:05:18.697Z,3.77
2022-12-18T06:07:47.183Z,3.57
2022-12-18T06:10:16.199Z,3.23
2022-12-18T06:12:47.115Z,3.47
2022-12-18T06:15:16.299Z,3.19
2022-12-18T06:17:45.460Z,3.40
2022-12-18T06:20:15.230Z,3.41
2022-12-18T06:22:44.242Z,3.30
2022-12-18T06:25:13.210Z,3.36
2022-12-18T06:27:42.286Z,3.79
2022-12-18T06:30:15.115Z,3.28
2022-12-18T06:32:43.720Z,2.71
2022-12-18T06:35:12.957Z,2.31
2022-12-18T06:37:41.451Z,2.09
2022-12-18T06:40:10.944Z,1.91
2022-12-18T06:42:39.448Z,2.01
2022-12-18T06:45:09.232Z,2.26
2022-12-18T06:47:39.164Z,2.13
2022-12-18T06:50:09.718Z,2.13
2022-12-18T06:52:39.989Z,2.02
2022-12-18T06:55:10.266Z,2.48
2022-12-18T06:57:39.200Z,2.49
2022-12-18T07:00:09.752Z,2.61
2022-12-18T07:02:39.809Z,2.67
2022-12-18T07:05:11.139Z,2.96
2022-12-18T07:07:39.713Z,3.24
2022-12-18T07:10:08.841Z,3.34
2022-12-18T07:12:37.341Z,3.60
2022-12-18T07:15:07.251Z,3.57
2022-12-18T07:17:35.997Z,3.78
2022-12-18T07:20:07.210Z,3.84
2022-12-18T07:22:35.695Z,3.54
2022-12-18T07:25:04.591Z,3.58
2022-12-18T07:27:33.056Z,3.94
2022-12-18T07:30:02.004Z,4.17
2022-12-18T07:32:30.582Z,4.35
2022-12-18T07:34:59.334Z,4.38
2022-12-18T07:37:29.293Z,4.34
2022-12-18T07:39:58.029Z,4.57
2022-12-18T07:42:36.235Z,4.54
2022-12-18T07:45:06.301Z,4.61
2022-12-18T07:47:37.107Z,4.69
2022-12-18T07:50:07.303Z,4.74
2022-12-18T07:52:37.276Z,4.92
2022-12-18T07:55:07.127Z,4.94
2022-12-18T07:57:55.201Z,5.07
2022-12-18T08:00:25.311Z,5.24
2022-12-18T08:02:54.428Z,5.06
2022-12-18T08:05:23.421Z,5.06
2022-12-18T08:07:53.325Z,4.78
2022-12-18T08:10:22.380Z,5.07
2022-12-18T08:12:52.314Z,5.03
2022-12-18T08:15:21.111Z,5.00
2022-12-18T08:17:49.558Z,4.43
2022-12-18T08:20:19.322Z,4.80
2022-12-18T08:22:47.977Z,4.56
2022-12-18T08:25:18.363Z,3.94
2022-12-18T08:27:46.946Z,3.59
2022-12-18T08:30:16.250Z,3.87
2022-12-18T08:32:44.735Z,3.20
2022-12-18T08:35:15.555Z,2.98
2022-12-18T08:37:47.066Z,2.92
2022-12-18T08:40:17.367Z,3.03
2022-12-18T08:43:03.323Z,2.79
2022-12-18T08:45:32.276Z,2.51
2022-12-18T08:48:00.776Z,2.25
2022-12-18T08:50:29.654Z,2.20
2022-12-18T08:52:58.130Z,2.41
2022-12-18T08:55:28.603Z,2.09
2022-12-18T08:57:57.195Z,2.19
2022-12-18T09:00:25.996Z,2.27
2022-12-18T09:02:54.555Z,2.75
2022-12-18T09:05:23.625Z,3.47
2022-12-18T09:07:52.057Z,3.57
2022-12-18T09:10:20.882Z,3.13
2022-12-18T09:12:52.084Z,3.25
2022-12-18T09:15:21.068Z,4.00
2022-12-18T09:17:50.932Z,3.81
2022-12-18T09:20:19.745Z,3.21
2022-12-18T09:22:48.251Z,3.07
2022-12-18T09:25:17.276Z,3.24
2022-12-18T09:27:48.953Z,2.99
2022-12-18T09:30:19.254Z,2.87
2022-12-18T09:32:48.008Z,3.26
2022-12-18T09:35:16.648Z,3.47
2022-12-18T09:37:45.654Z,3.87
2022-12-18T09:40:16.713Z,4.51
2022-12-18T09:42:50.248Z,3.65
2022-12-18T09:45:20.640Z,3.80
2022-12-18T09:47:52.339Z,3.34
2022-12-18T09:50:28.478Z,3.25
2022-12-18T09:53:01.846Z,3.29
2022-12-18T09:55:37.425Z,3.41
2022-12-18T09:58:16.108Z,4.07
2022-12-18T10:00:46.304Z,4.42
2022-12-18T10:03:17.182Z,3.88
2022-12-18T10:05:58.522Z,4.37
2022-12-18T10:08:39.008Z,4.30
2022-12-18T10:11:25.623Z,4.01
2022-12-18T10:14:01.193Z,4.26
2022-12-18T10:16:39.886Z,3.89
2022-12-18T10:19:26.246Z,4.11
2022-12-18T10:22:03.304Z,3.29
2022-12-18T10:24:40.984Z,3.27
2022-12-18T10:27:18.621Z,3.18
2022-12-18T10:29:48.333Z,3.09
2022-12-18T10:32:21.435Z,3.30
2022-12-18T10:34:58.193Z,4.10
2022-12-18T10:37:30.501Z,4.07
2022-12-18T10:40:16.662Z,4.13
2022-12-18T10:42:49.493Z,4.01
2022-12-18T10:45:19.648Z,3.47
2022-12-18T10:47:51.293Z,3.70
2022-12-18T10:50:54.002Z,3.27
2022-12-18T10:53:22.721Z,2.93
2022-12-18T10:55:53.179Z,3.12
2022-12-18T10:58:27.468Z,3.41
2022-12-18T11:01:11.866Z,3.56
2022-12-18T11:03:44.315Z,3.06
2022-12-18T11:06:14.969Z,2.88
2022-12-18T11:08:45.647Z,3.00
2022-12-18T11:11:22.828Z,3.40
2022-12-18T11:14:03.353Z,3.41
2022-12-18T11:16:36.896Z,3.47
2022-12-18T11:19:27.385Z,3.63
2022-12-18T11:21:56.415Z,3.57
2022-12-18T11:24:31.607Z,4.02
2022-12-18T11:27:03.451Z,4.55
2022-12-18T11:29:40.621Z,5.20
2022-12-18T11:32:35.265Z,5.68
2022-12-18T11:35:17.573Z,5.91
2022-12-18T11:37:51.589Z,6.23
2022-12-18T11:40:24.614Z,5.97
2022-12-18T11:43:00.723Z,4.97
2022-12-18T11:45:32.168Z,4.78
2022-12-18T11:48:06.796Z,4.55
2022-12-18T11:50:53.863Z,4.27
2022-12-18T11:53:25.829Z,4.03
2022-12-18T11:56:08.219Z,3.66
2022-12-18T11:58:59.562Z,3.51
2022-12-18T12:01:44.697Z,3.86
2022-12-18T12:04:49.078Z,3.69
2022-12-18T12:07:29.579Z,3.66
2022-12-18T12:10:10.518Z,3.49
2022-12-18T12:12:54.871Z,3.38
2022-12-18T12:15:33.480Z,3.66
2022-12-18T12:18:11.595Z,3.93
2022-12-18T12:20:53.435Z,3.82
2022-12-18T12:23:35.059Z,3.73
2022-12-18T12:26:09.954Z,3.73
2022-12-18T12:28:55.686Z,3.86
2022-12-18T12:31:38.716Z,4.13
2022-12-18T12:34:17.808Z,4.58
2022-12-18T12:37:01.236Z,4.12
2022-12-18T12:39:35.545Z,4.17
2022-12-18T12:42:23.724Z,3.99
2022-12-18T12:44:57.191Z,4.06
2022-12-18T12:47:33.070Z,4.43
2022-12-18T12:50:05.884Z,4.57
2022-12-18T12:52:42.124Z,4.51
2022-12-18T12:55:19.722Z,5.06
2022-12-18T12:57:59.131Z,5.65
2022-12-18T13:00:33.229Z,6.16
2022-12-18T13:03:11.226Z,6.50
2022-12-18T13:05:46.662Z,6.74
2022-12-18T13:08:25.375Z,7.13
2022-12-18T13:11:13.089Z,7.34
2022-12-18T13:13:54.050Z,7.67
2022-12-18T13:16:25.890Z,7.77
2022-12-18T13:18:57.972Z,7.84
2022-12-18T13:21:30.056Z,7.91
2022-12-18T13:24:17.440Z,8.12
2022-12-18T13:26:47.225Z,8.16
2022-12-18T13:29:43.139Z,8.40
2022-12-18T13:32:24.679Z,8.31
2022-12-18T13:35:27.579Z,8.45
2022-12-18T13:37:56.982Z,8.42
2022-12-18T13:40:59.053Z,8.62
2022-12-18T13:43:35.874Z,8.50
2022-12-18T13:46:09.449Z,8.29
2022-12-18T13:48:41.493Z,8.41
2022-12-18T13:51:12.876Z,8.49
2022-12-18T13:53:46.737Z,8.54
2022-12-18T13:56:18.604Z,8.49
2022-12-18T13:58:48.447Z,8.47
2022-12-18T14:01:26.744Z,8.69
2022-12-18T14:04:13.332Z,8.80
2022-12-18T14:06:44.092Z,8.74
2022-12-18T14:09:21.432Z,8.82
2022-12-18T14:11:51.574Z,8.71
2022-12-18T14:14:22.756Z,8.75
2022-12-18T14:16:53.013Z,8.76
2022-12-18T14:19:23.025Z,8.82
2022-12-18T14:21:52.828Z,8.75
2022-12-18T14:24:23.594Z,8.74
2022-12-18T14:26:53.041Z,8.68
2022-12-18T14:29:26.941Z,8.63
2022-12-18T14:32:17.697Z,8.48
2022-12-18T14:34:48.229Z,8.03
2022-12-18T14:37:19.182Z,8.19
2022-12-18T14:39:59.161Z,8.37
2022-12-18T14:42:29.368Z,8.19
2022-12-18T14:45:42.708Z,8.33
2022-12-18T14:48:21.579Z,8.22
2022-12-18T14:51:02.187Z,8.17
2022-12-18T14:53:37.599Z,8.14
2022-12-18T14:56:17.238Z,8.22
2022-12-18T14:58:55.716Z,8.26
2022-12-18T15:01:28.840Z,8.27
2022-12-18T15:04:00.157Z,8.10
2022-12-18T15:06:32.651Z,8.11
2022-12-18T15:09:03.402Z,7.79
2022-12-18T15:11:37.415Z,7.71
2022-12-18T15:14:26.031Z,7.98
2022-12-18T15:16:57.569Z,7.86
2022-12-18T15:19:34.628Z,7.97
2022-12-18T15:22:06.582Z,8.07
2022-12-18T15:24:35.770Z,7.93
2022-12-18T15:27:04.637Z,7.92
2022-12-18T15:29:33.389Z,8.06
2022-12-18T15:32:05.588Z,8.27
2022-12-18T15:34:35.076Z,8.32
2022-12-18T15:37:03.516Z,8.37
2022-12-18T15:39:32.650Z,8.39
2022-12-18T15:42:20.748Z,8.34
2022-12-18T15:44:49.619Z,8.45
2022-12-18T15:47:19.538Z,8.20
2022-12-18T15:49:48.314Z,8.23
2022-12-18T15:52:26.919Z,8.17
2022-12-18T15:55:13.770Z,8.27
2022-12-18T15:57:42.247Z,7.89
2022-12-18T16:00:14.793Z,7.87
2022-12-18T16:02:45.274Z,7.89
2022-12-18T16:05:18.008Z,8.07
2022-12-18T16:07:47.173Z,8.16
2022-12-18T16:10:16.473Z,8.17
2022-12-18T16:12:45.307Z,8.24
2022-12-18T16:15:21.077Z,8.14
2022-12-18T16:17:54.537Z,8.07
2022-12-18T16:20:24.530Z,8.17
2022-12-18T16:22:54.153Z,7.96
2022-12-18T16:25:26.516Z,7.90
2022-12-18T16:27:56.229Z,7.75
2022-12-18T16:30:28.653Z,7.79
2022-12-18T16:33:02.528Z,7.64
2022-12-18T16:35:31.351Z,7.79
2022-12-18T16:37:59.833Z,7.92
2022-12-18T16:40:28.697Z,7.94
2022-12-18T16:42:57.279Z,7.93
2022-12-18T16:45:26.118Z,7.80
2022-12-18T16:47:54.534Z,7.61
2022-12-18T16:50:24.760Z,7.46
2022-12-18T16:52:53.381Z,7.44
2022-12-18T16:55:22.131Z,7.45
2022-12-18T16:57:50.682Z,7.49
2022-12-18T17:00:19.853Z,7.62
2022-12-18T17:02:48.625Z,7.75
2022-12-18T17:05:17.588Z,7.84
2022-12-18T17:07:48.151Z,7.80
2022-12-18T17:10:17.151Z,7.73
2022-12-18T17:12:45.648Z,7.66
2022-12-18T17:15:14.473Z,7.71
2022-12-18T17:17:43.406Z,7.64
2022-12-18T17:20:12.404Z,7.54
2022-12-18T17:22:41.196Z,7.60
2022-12-18T17:25:11.890Z,7.73
2022-12-18T17:27:41.078Z,7.83
2022-12-18T17:30:11.553Z,7.89
2022-12-18T17:32:40.193Z,7.91
2022-12-18T17:35:09.865Z,7.98
2022-12-18T17:37:38.307Z,7.95
2022-12-18T17:40:08.512Z,8.02
2022-12-18T17:42:38.267Z,8.09
2022-12-18T17:45:08.331Z,8.16
2022-12-18T17:47:37.255Z,8.12
2022-12-18T17:50:06.565Z,8.14
2022-12-18T17:52:35.114Z,7.96
2022-12-18T17:55:03.949Z,7.83
2022-12-18T17:57:32.495Z,7.96
2022-12-18T18:00:03.270Z,8.01
2022-12-18T18:02:38.096Z,8.06
2022-12-18T18:05:07.396Z,8.15
2022-12-18T18:07:39.037Z,8.16
2022-12-18T18:10:08.503Z,8.25
2022-12-18T18:12:55.606Z,8.26
2022-12-18T18:15:25.832Z,8.31
2022-12-18T18:17:54.323Z,8.33
2022-12-18T18:20:23.081Z,8.36
2022-12-18T18:22:51.713Z,8.39
2022-12-18T18:25:20.639Z,8.29
2022-12-18T18:27:51.179Z,8.25
2022-12-18T18:30:20.346Z,8.27
2022-12-18T18:32:50.350Z,8.19
2022-12-18T18:35:52.516Z,8.14
2022-12-18T18:38:10.125Z,8.16
2022-12-18T18:40:38.853Z,8.13
2022-12-18T18:43:07.510Z,8.08
2022-12-18T18:45:36.375Z,8.07
2022-12-18T18:48:06.895Z,8.09
2022-12-18T18:50:35.712Z,8.09
2022-12-18T18:53:04.268Z,8.10
2022-12-18T18:55:34.754Z,8.10
2022-12-18T18:58:03.361Z,8.12
2022-12-18T19:00:33.780Z,8.15
2022-12-18T19:03:02.923Z,8.16
2022-12-18T19:05:33.999Z,8.03
2022-12-18T19:08:02.477Z,7.92
2022-12-18T19:10:31.354Z,7.91
2022-12-18T19:13:17.048Z,7.86
2022-12-18T19:15:46.061Z,7.75
2022-12-18T19:18:14.659Z,7.73
2022-12-18T19:20:45.204Z,7.68
2022-12-18T19:23:13.681Z,7.45
2022-12-18T19:25:42.962Z,7.32
2022-12-18T19:28:15.818Z,7.32
2022-12-18T19:30:58.823Z,7.30
2022-12-18T19:33:45.019Z,7.25
2022-12-18T19:36:20.183Z,7.27
2022-12-18T19:38:49.939Z,7.24
2022-12-18T19:41:19.750Z,7.22
2022-12-18T19:43:49.451Z,7.21
2022-12-18T19:46:21.679Z,7.23
2022-12-18T19:48:50.725Z,7.23
2022-12-18T19:51:23.823Z,7.26
2022-12-18T19:53:58.121Z,7.18
2022-12-18T19:56:29.858Z,7.19
2022-12-18T19:58:58.940Z,7.13
2022-12-18T20:01:29.630Z,7.10
2022-12-18T20:03:59.056Z,7.08
2022-12-18T20:06:32.370Z,7.13
2022-12-18T20:09:03.053Z,7.13
2022-12-18T20:11:33.528Z,7.14
2022-12-18T20:14:06.698Z,7.15
2022-12-18T20:16:35.611Z,7.08
2022-12-18T20:19:04.422Z,7.13
2022-12-18T20:21:35.094Z,7.17
2022-12-18T20:24:03.730Z,7.19
2022-12-18T20:26:32.785Z,7.24
2022-12-18T20:29:01.688Z,7.23
2022-12-18T20:31:30.718Z,7.25
2022-12-18T20:34:01.539Z,7.29
2022-12-18T20:36:31.726Z,7.22
2022-12-18T20:39:05.208Z,7.34
2022-12-18T20:41:38.307Z,7.31
2022-12-18T20:44:21.481Z,7.35
2022-12-18T20:46:56.947Z,7.45
2022-12-18T20:49:27.050Z,7.38
2022-12-18T20:51:57.792Z,7.36
2022-12-18T20:54:28.558Z,7.40
2022-12-18T20:56:57.623Z,7.40
2022-12-18T20:59:26.500Z,7.46
2022-12-18T21:01:56.120Z,7.48
2022-12-18T21:04:25.187Z,7.50
2022-12-18T21:06:57.939Z,7.52
2022-12-18T21:09:37.586Z,7.54
2022-12-18T21:12:40.450Z,7.56
2022-12-18T21:15:12.629Z,7.62
2022-12-18T21:17:44.173Z,7.65
2022-12-18T21:20:18.011Z,7.65
2022-12-18T21:22:49.729Z,7.66
2022-12-18T21:25:19.720Z,7.71
2022-12-18T21:27:48.451Z,7.65
2022-12-18T21:30:17.402Z,7.64
2022-12-18T21:32:46.349Z,7.65
2022-12-18T21:35:15.538Z,7.67
2022-12-18T21:37:46.179Z,7.75
2022-12-18T21:40:15.147Z,7.73
2022-12-18T21:43:02.931Z,7.75
2022-12-18T21:45:31.390Z,7.80
2022-12-18T21:48:00.335Z,7.81
2022-12-18T21:50:28.831Z,7.83
2022-12-18T21:52:57.676Z,7.84
2022-12-18T21:55:26.158Z,7.72
2022-12-18T21:57:56.820Z,7.82
2022-12-18T22:00:25.627Z,7.78
2022-12-18T22:03:17.201Z,7.80
2022-12-18T22:05:42.953Z,7.70
2022-12-18T22:08:11.636Z,7.73
2022-12-18T22:10:41.400Z,7.76
2022-12-18T22:13:11.733Z,7.80
2022-12-18T22:15:40.141Z,7.84
2022-12-18T22:18:08.975Z,7.90
2022-12-18T22:20:37.512Z,7.89
2022-12-18T22:23:06.613Z,7.93
2022-12-18T22:25:35.785Z,7.86
2022-12-18T22:28:26.458Z,7.87
2022-12-18T22:30:59.218Z,7.89
2022-12-18T22:33:29.154Z,7.83
2022-12-18T22:35:57.638Z,7.85
2022-12-18T22:38:27.453Z,7.86
2022-12-18T22:40:56.416Z,7.82
2022-12-18T22:43:25.387Z,7.66
2022-12-18T22:45:53.919Z,7.69
2022-12-18T22:48:24.307Z,7.78
2022-12-18T22:50:53.862Z,7.77
2022-12-18T22:53:28.684Z,7.86
2022-12-18T22:56:02.022Z,7.85
2022-12-18T22:58:30.871Z,7.75
2022-12-18T23:00:59.334Z,7.66
2022-12-18T23:03:29.532Z,7.66
2022-12-18T23:06:04.435Z,7.69
2022-12-18T23:08:33.521Z,7.64
2022-12-18T23:11:02.272Z,7.69
2022-12-18T23:13:31.315Z,7.76
2022-12-18T23:15:59.907Z,7.73
2022-12-18T23:18:30.058Z,7.78
2022-12-18T23:20:58.603Z,7.70
2022-12-18T23:23:28.472Z,7.81
2022-12-18T23:26:02.104Z,7.91
2022-12-18T23:28:32.830Z,7.83
2022-12-18T23:31:06.843Z,7.89
2022-12-18T23:33:37.108Z,7.80
2022-12-18T23:36:07.098Z,7.81
2022-12-18T23:38:36.158Z,7.83
2022-12-18T23:41:08.888Z,7.89
2022-12-18T23:43:37.753Z,7.84
2022-12-18T23:46:12.530Z,7.90
2022-12-18T23:48:43.447Z,7.88
2022-12-18T23:51:13.679Z,7.92
2022-12-18T23:53:43.131Z,7.93
2022-12-18T23:56:13.834Z,7.97
2022-12-18T23:58:43.657Z,7.96
